sensor_id;sensor_type;location;lat;lon;timestamp;P1;durP1;ratioP1;P2;durP2;ratioP2
72406;SDS011;60396;47.550;18.828;2022-08-21T00:02:12;7.15;;;2.72;;
72406;SDS011;60396;47.550;18.828;2022-08-21T00:04:51;7.70;;;2.92;;
72406;SDS011;60396;47.550;18.828;2022-08-21T00:07:24;7.63;;;2.90;;
72406;SDS011;60396;47.550;18.828;2022-08-21T00:09:52;8.02;;;3.45;;
72406;SDS011;60396;47.550;18.828;2022-08-21T00:12:19;8.27;;;3.00;;
72406;SDS011;60396;47.550;18.828;2022-08-21T00:14:47;9.20;;;3.05;;
72406;SDS011;60396;47.550;18.828;2022-08-21T00:17:15;8.88;;;3.62;;
72406;SDS011;60396;47.550;18.828;2022-08-21T00:19:43;7.43;;;2.63;;
72406;SDS011;60396;47.550;18.828;2022-08-21T00:22:11;9.00;;;3.17;;
72406;SDS011;60396;47.550;18.828;2022-08-21T00:24:39;6.93;;;3.40;;
72406;SDS011;60396;47.550;18.828;2022-08-21T00:27:06;9.45;;;3.12;;
72406;SDS011;60396;47.550;18.828;2022-08-21T00:29:34;8.57;;;3.35;;
72406;SDS011;60396;47.550;18.828;2022-08-21T00:32:02;7.60;;;3.73;;
72406;SDS011;60396;47.550;18.828;2022-08-21T00:34:29;7.18;;;3.05;;
72406;SDS011;60396;47.550;18.828;2022-08-21T00:36:57;8.10;;;3.90;;
72406;SDS011;60396;47.550;18.828;2022-08-21T00:39:25;8.25;;;4.35;;
72406;SDS011;60396;47.550;18.828;2022-08-21T00:41:53;7.68;;;3.70;;
72406;SDS011;60396;47.550;18.828;2022-08-21T00:44:20;9.47;;;4.33;;
72406;SDS011;60396;47.550;18.828;2022-08-21T00:46:48;9.05;;;4.22;;
72406;SDS011;60396;47.550;18.828;2022-08-21T00:49:15;9.02;;;3.97;;
72406;SDS011;60396;47.550;18.828;2022-08-21T00:51:48;9.43;;;4.43;;
72406;SDS011;60396;47.550;18.828;2022-08-21T00:54:18;8.85;;;4.70;;
72406;SDS011;60396;47.550;18.828;2022-08-21T00:56:50;7.93;;;3.23;;
72406;SDS011;60396;47.550;18.828;2022-08-21T00:59:21;10.15;;;3.97;;
72406;SDS011;60396;47.550;18.828;2022-08-21T01:01:50;10.98;;;4.37;;
72406;SDS011;60396;47.550;18.828;2022-08-21T01:04:19;8.98;;;4.32;;
72406;SDS011;60396;47.550;18.828;2022-08-21T01:06:47;8.85;;;4.60;;
72406;SDS011;60396;47.550;18.828;2022-08-21T01:09:15;8.20;;;4.10;;
72406;SDS011;60396;47.550;18.828;2022-08-21T01:11:42;10.43;;;5.57;;
72406;SDS011;60396;47.550;18.828;2022-08-21T01:14:11;10.70;;;4.78;;
72406;SDS011;60396;47.550;18.828;2022-08-21T01:16:43;13.57;;;5.00;;
72406;SDS011;60396;47.550;18.828;2022-08-21T01:19:13;9.45;;;4.80;;
72406;SDS011;60396;47.550;18.828;2022-08-21T01:21:42;10.57;;;5.07;;
72406;SDS011;60396;47.550;18.828;2022-08-21T01:24:10;10.13;;;4.85;;
72406;SDS011;60396;47.550;18.828;2022-08-21T01:26:39;10.27;;;4.87;;
72406;SDS011;60396;47.550;18.828;2022-08-21T01:29:09;10.63;;;4.95;;
72406;SDS011;60396;47.550;18.828;2022-08-21T01:31:41;9.63;;;4.70;;
72406;SDS011;60396;47.550;18.828;2022-08-21T01:34:08;11.03;;;5.10;;
72406;SDS011;60396;47.550;18.828;2022-08-21T01:36:36;11.70;;;5.93;;
72406;SDS011;60396;47.550;18.828;2022-08-21T01:39:05;12.57;;;5.75;;
72406;SDS011;60396;47.550;18.828;2022-08-21T01:41:33;13.45;;;6.43;;
72406;SDS011;60396;47.550;18.828;2022-08-21T01:44:00;13.38;;;6.25;;
72406;SDS011;60396;47.550;18.828;2022-08-21T01:46:28;12.40;;;6.00;;
72406;SDS011;60396;47.550;18.828;2022-08-21T01:48:56;13.30;;;5.82;;
72406;SDS011;60396;47.550;18.828;2022-08-21T01:51:23;11.88;;;5.82;;
72406;SDS011;60396;47.550;18.828;2022-08-21T01:53:51;13.40;;;6.47;;
72406;SDS011;60396;47.550;18.828;2022-08-21T01:56:19;12.98;;;5.30;;
72406;SDS011;60396;47.550;18.828;2022-08-21T01:58:46;11.87;;;5.90;;
72406;SDS011;60396;47.550;18.828;2022-08-21T02:01:15;12.52;;;6.00;;
72406;SDS011;60396;47.550;18.828;2022-08-21T02:03:43;13.35;;;6.05;;
72406;SDS011;60396;47.550;18.828;2022-08-21T02:06:15;10.85;;;5.07;;
72406;SDS011;60396;47.550;18.828;2022-08-21T02:08:45;13.70;;;5.97;;
72406;SDS011;60396;47.550;18.828;2022-08-21T02:11:13;12.37;;;6.13;;
72406;SDS011;60396;47.550;18.828;2022-08-21T02:13:41;12.20;;;5.70;;
72406;SDS011;60396;47.550;18.828;2022-08-21T02:16:09;12.45;;;6.15;;
72406;SDS011;60396;47.550;18.828;2022-08-21T02:18:42;11.07;;;5.12;;
72406;SDS011;60396;47.550;18.828;2022-08-21T02:21:10;14.40;;;5.20;;
72406;SDS011;60396;47.550;18.828;2022-08-21T02:23:38;11.90;;;5.97;;
72406;SDS011;60396;47.550;18.828;2022-08-21T02:26:06;11.80;;;5.57;;
72406;SDS011;60396;47.550;18.828;2022-08-21T02:28:35;12.27;;;5.57;;
72406;SDS011;60396;47.550;18.828;2022-08-21T02:31:03;14.50;;;5.70;;
72406;SDS011;60396;47.550;18.828;2022-08-21T02:33:31;11.65;;;5.57;;
72406;SDS011;60396;47.550;18.828;2022-08-21T02:35:59;10.63;;;5.43;;
72406;SDS011;60396;47.550;18.828;2022-08-21T02:38:28;12.23;;;5.95;;
72406;SDS011;60396;47.550;18.828;2022-08-21T02:40:57;12.45;;;6.20;;
72406;SDS011;60396;47.550;18.828;2022-08-21T02:43:26;12.52;;;6.78;;
72406;SDS011;60396;47.550;18.828;2022-08-21T02:45:55;12.40;;;5.57;;
72406;SDS011;60396;47.550;18.828;2022-08-21T02:48:28;12.53;;;6.07;;
72406;SDS011;60396;47.550;18.828;2022-08-21T02:51:02;14.15;;;6.87;;
72406;SDS011;60396;47.550;18.828;2022-08-21T02:53:30;12.02;;;6.00;;
72406;SDS011;60396;47.550;18.828;2022-08-21T02:55:59;14.43;;;6.43;;
72406;SDS011;60396;47.550;18.828;2022-08-21T02:58:30;13.23;;;6.32;;
72406;SDS011;60396;47.550;18.828;2022-08-21T03:01:00;11.17;;;5.27;;
72406;SDS011;60396;47.550;18.828;2022-08-21T03:03:28;14.18;;;6.75;;
72406;SDS011;60396;47.550;18.828;2022-08-21T03:05:56;12.48;;;6.35;;
72406;SDS011;60396;47.550;18.828;2022-08-21T03:08:24;12.02;;;5.50;;
72406;SDS011;60396;47.550;18.828;2022-08-21T03:10:54;15.82;;;7.07;;
72406;SDS011;60396;47.550;18.828;2022-08-21T03:13:21;13.23;;;6.27;;
72406;SDS011;60396;47.550;18.828;2022-08-21T03:15:49;12.88;;;6.15;;
72406;SDS011;60396;47.550;18.828;2022-08-21T03:18:17;12.48;;;5.93;;
72406;SDS011;60396;47.550;18.828;2022-08-21T03:20:45;18.08;;;7.57;;
72406;SDS011;60396;47.550;18.828;2022-08-21T03:23:13;13.35;;;7.37;;
72406;SDS011;60396;47.550;18.828;2022-08-21T03:25:46;13.50;;;6.63;;
72406;SDS011;60396;47.550;18.828;2022-08-21T03:28:17;13.52;;;6.30;;
72406;SDS011;60396;47.550;18.828;2022-08-21T03:30:47;12.95;;;6.80;;
72406;SDS011;60396;47.550;18.828;2022-08-21T03:33:16;12.43;;;6.10;;
72406;SDS011;60396;47.550;18.828;2022-08-21T03:35:47;13.20;;;7.53;;
72406;SDS011;60396;47.550;18.828;2022-08-21T03:38:21;16.07;;;7.27;;
72406;SDS011;60396;47.550;18.828;2022-08-21T03:40:53;16.20;;;8.02;;
72406;SDS011;60396;47.550;18.828;2022-08-21T03:43:20;15.18;;;7.45;;
72406;SDS011;60396;47.550;18.828;2022-08-21T03:45:48;15.75;;;8.15;;
72406;SDS011;60396;47.550;18.828;2022-08-21T03:48:18;15.57;;;7.50;;
72406;SDS011;60396;47.550;18.828;2022-08-21T03:50:46;12.90;;;6.87;;
72406;SDS011;60396;47.550;18.828;2022-08-21T03:53:16;15.75;;;8.05;;
72406;SDS011;60396;47.550;18.828;2022-08-21T03:55:45;16.10;;;7.80;;
72406;SDS011;60396;47.550;18.828;2022-08-21T03:58:16;17.08;;;7.80;;
72406;SDS011;60396;47.550;18.828;2022-08-21T04:00:46;12.57;;;6.45;;
72406;SDS011;60396;47.550;18.828;2022-08-21T04:03:15;15.47;;;8.17;;
72406;SDS011;60396;47.550;18.828;2022-08-21T04:05:43;14.60;;;7.57;;
72406;SDS011;60396;47.550;18.828;2022-08-21T04:08:13;15.27;;;6.93;;
72406;SDS011;60396;47.550;18.828;2022-08-21T04:10:41;15.93;;;7.45;;
72406;SDS011;60396;47.550;18.828;2022-08-21T04:13:10;14.60;;;6.85;;
72406;SDS011;60396;47.550;18.828;2022-08-21T04:15:38;13.80;;;6.23;;
72406;SDS011;60396;47.550;18.828;2022-08-21T04:18:06;13.43;;;6.60;;
72406;SDS011;60396;47.550;18.828;2022-08-21T04:20:35;12.05;;;6.07;;
72406;SDS011;60396;47.550;18.828;2022-08-21T04:23:03;9.90;;;5.47;;
72406;SDS011;60396;47.550;18.828;2022-08-21T04:25:31;11.15;;;5.65;;
72406;SDS011;60396;47.550;18.828;2022-08-21T04:27:58;12.70;;;6.43;;
72406;SDS011;60396;47.550;18.828;2022-08-21T04:30:26;10.73;;;5.60;;
72406;SDS011;60396;47.550;18.828;2022-08-21T04:32:56;12.35;;;5.50;;
72406;SDS011;60396;47.550;18.828;2022-08-21T04:35:25;11.80;;;4.90;;
72406;SDS011;60396;47.550;18.828;2022-08-21T04:37:54;10.18;;;5.12;;
72406;SDS011;60396;47.550;18.828;2022-08-21T04:40:22;10.13;;;5.10;;
72406;SDS011;60396;47.550;18.828;2022-08-21T04:43:00;10.90;;;4.70;;
72406;SDS011;60396;47.550;18.828;2022-08-21T04:45:31;9.52;;;4.18;;
72406;SDS011;60396;47.550;18.828;2022-08-21T04:48:08;9.20;;;4.28;;
72406;SDS011;60396;47.550;18.828;2022-08-21T04:50:42;7.70;;;3.78;;
72406;SDS011;60396;47.550;18.828;2022-08-21T04:53:22;7.50;;;3.50;;
72406;SDS011;60396;47.550;18.828;2022-08-21T04:55:54;7.87;;;4.22;;
72406;SDS011;60396;47.550;18.828;2022-08-21T04:58:23;9.38;;;4.07;;
72406;SDS011;60396;47.550;18.828;2022-08-21T05:00:53;9.88;;;4.45;;
72406;SDS011;60396;47.550;18.828;2022-08-21T05:03:22;8.73;;;4.20;;
72406;SDS011;60396;47.550;18.828;2022-08-21T05:05:49;8.33;;;3.47;;
72406;SDS011;60396;47.550;18.828;2022-08-21T05:08:18;8.93;;;3.67;;
72406;SDS011;60396;47.550;18.828;2022-08-21T05:10:47;8.40;;;3.90;;
72406;SDS011;60396;47.550;18.828;2022-08-21T05:13:14;10.13;;;3.95;;
72406;SDS011;60396;47.550;18.828;2022-08-21T05:15:42;7.87;;;3.53;;
72406;SDS011;60396;47.550;18.828;2022-08-21T05:18:10;8.50;;;3.40;;
72406;SDS011;60396;47.550;18.828;2022-08-21T05:20:38;10.43;;;3.75;;
72406;SDS011;60396;47.550;18.828;2022-08-21T05:23:09;10.73;;;3.87;;
72406;SDS011;60396;47.550;18.828;2022-08-21T05:25:38;7.43;;;3.30;;
72406;SDS011;60396;47.550;18.828;2022-08-21T05:28:08;8.70;;;3.70;;
72406;SDS011;60396;47.550;18.828;2022-08-21T05:30:36;9.20;;;3.80;;
72406;SDS011;60396;47.550;18.828;2022-08-21T05:33:05;7.37;;;2.97;;
72406;SDS011;60396;47.550;18.828;2022-08-21T05:35:34;10.38;;;3.50;;
72406;SDS011;60396;47.550;18.828;2022-08-21T05:38:01;8.68;;;3.25;;
72406;SDS011;60396;47.550;18.828;2022-08-21T05:40:30;8.38;;;3.72;;
72406;SDS011;60396;47.550;18.828;2022-08-21T05:42:59;6.60;;;2.80;;
72406;SDS011;60396;47.550;18.828;2022-08-21T05:45:31;8.57;;;3.08;;
72406;SDS011;60396;47.550;18.828;2022-08-21T05:48:11;7.55;;;2.97;;
72406;SDS011;60396;47.550;18.828;2022-08-21T05:50:47;7.05;;;2.97;;
72406;SDS011;60396;47.550;18.828;2022-08-21T05:53:16;6.97;;;3.17;;
72406;SDS011;60396;47.550;18.828;2022-08-21T05:55:45;7.80;;;2.80;;
72406;SDS011;60396;47.550;18.828;2022-08-21T05:58:14;6.78;;;2.83;;
72406;SDS011;60396;47.550;18.828;2022-08-21T06:00:43;8.88;;;3.53;;
72406;SDS011;60396;47.550;18.828;2022-08-21T06:03:17;8.48;;;3.37;;
72406;SDS011;60396;47.550;18.828;2022-08-21T06:05:47;7.60;;;3.45;;
72406;SDS011;60396;47.550;18.828;2022-08-21T06:08:16;8.03;;;3.07;;
72406;SDS011;60396;47.550;18.828;2022-08-21T06:10:44;7.07;;;3.28;;
72406;SDS011;60396;47.550;18.828;2022-08-21T06:13:13;8.77;;;3.75;;
72406;SDS011;60396;47.550;18.828;2022-08-21T06:15:41;8.65;;;3.50;;
72406;SDS011;60396;47.550;18.828;2022-08-21T06:18:09;9.70;;;3.87;;
72406;SDS011;60396;47.550;18.828;2022-08-21T06:20:37;10.27;;;3.70;;
72406;SDS011;60396;47.550;18.828;2022-08-21T06:23:05;8.43;;;3.60;;
72406;SDS011;60396;47.550;18.828;2022-08-21T06:25:33;8.07;;;3.65;;
72406;SDS011;60396;47.550;18.828;2022-08-21T06:28:01;8.73;;;3.75;;
72406;SDS011;60396;47.550;18.828;2022-08-21T06:30:31;8.02;;;3.72;;
72406;SDS011;60396;47.550;18.828;2022-08-21T06:32:59;8.80;;;3.53;;
72406;SDS011;60396;47.550;18.828;2022-08-21T06:35:27;7.93;;;3.75;;
72406;SDS011;60396;47.550;18.828;2022-08-21T06:37:56;7.85;;;3.78;;
72406;SDS011;60396;47.550;18.828;2022-08-21T06:40:25;8.35;;;3.80;;
72406;SDS011;60396;47.550;18.828;2022-08-21T06:43:04;9.88;;;3.87;;
72406;SDS011;60396;47.550;18.828;2022-08-21T06:45:36;8.30;;;3.87;;
72406;SDS011;60396;47.550;18.828;2022-08-21T06:48:04;9.13;;;3.47;;
72406;SDS011;60396;47.550;18.828;2022-08-21T06:50:32;7.90;;;3.58;;
72406;SDS011;60396;47.550;18.828;2022-08-21T06:53:04;11.60;;;4.28;;
72406;SDS011;60396;47.550;18.828;2022-08-21T06:55:33;7.22;;;2.95;;
72406;SDS011;60396;47.550;18.828;2022-08-21T06:58:01;8.73;;;3.50;;
72406;SDS011;60396;47.550;18.828;2022-08-21T07:00:30;9.93;;;4.00;;
72406;SDS011;60396;47.550;18.828;2022-08-21T07:02:58;8.10;;;3.87;;
72406;SDS011;60396;47.550;18.828;2022-08-21T07:05:26;8.68;;;3.97;;
72406;SDS011;60396;47.550;18.828;2022-08-21T07:07:55;7.75;;;3.80;;
72406;SDS011;60396;47.550;18.828;2022-08-21T07:10:25;9.47;;;3.43;;
72406;SDS011;60396;47.550;18.828;2022-08-21T07:12:53;8.73;;;4.40;;
72406;SDS011;60396;47.550;18.828;2022-08-21T07:15:28;8.70;;;3.47;;
72406;SDS011;60396;47.550;18.828;2022-08-21T07:17:58;10.98;;;4.43;;
72406;SDS011;60396;47.550;18.828;2022-08-21T07:20:26;9.20;;;3.75;;
72406;SDS011;60396;47.550;18.828;2022-08-21T07:23:01;8.17;;;3.83;;
72406;SDS011;60396;47.550;18.828;2022-08-21T07:25:30;8.45;;;3.22;;
72406;SDS011;60396;47.550;18.828;2022-08-21T07:27:58;9.15;;;3.42;;
72406;SDS011;60396;47.550;18.828;2022-08-21T07:30:26;9.25;;;4.30;;
72406;SDS011;60396;47.550;18.828;2022-08-21T07:32:54;10.18;;;4.80;;
72406;SDS011;60396;47.550;18.828;2022-08-21T07:35:22;11.00;;;4.10;;
72406;SDS011;60396;47.550;18.828;2022-08-21T07:37:50;9.57;;;4.53;;
72406;SDS011;60396;47.550;18.828;2022-08-21T07:40:17;9.98;;;4.28;;
72406;SDS011;60396;47.550;18.828;2022-08-21T07:42:46;10.10;;;3.75;;
72406;SDS011;60396;47.550;18.828;2022-08-21T07:45:18;9.80;;;4.00;;
72406;SDS011;60396;47.550;18.828;2022-08-21T07:47:47;9.60;;;4.73;;
72406;SDS011;60396;47.550;18.828;2022-08-21T07:50:20;10.38;;;5.12;;
72406;SDS011;60396;47.550;18.828;2022-08-21T07:52:48;10.23;;;4.57;;
72406;SDS011;60396;47.550;18.828;2022-08-21T07:55:16;10.55;;;4.12;;
72406;SDS011;60396;47.550;18.828;2022-08-21T07:57:45;7.55;;;3.20;;
72406;SDS011;60396;47.550;18.828;2022-08-21T08:00:14;9.13;;;4.20;;
72406;SDS011;60396;47.550;18.828;2022-08-21T08:02:45;9.38;;;4.00;;
72406;SDS011;60396;47.550;18.828;2022-08-21T08:05:17;8.98;;;3.90;;
72406;SDS011;60396;47.550;18.828;2022-08-21T08:07:45;8.90;;;4.37;;
72406;SDS011;60396;47.550;18.828;2022-08-21T08:10:14;10.15;;;4.45;;
72406;SDS011;60396;47.550;18.828;2022-08-21T08:12:43;9.70;;;4.83;;
72406;SDS011;60396;47.550;18.828;2022-08-21T08:15:13;9.25;;;4.93;;
72406;SDS011;60396;47.550;18.828;2022-08-21T08:17:42;10.50;;;4.53;;
72406;SDS011;60396;47.550;18.828;2022-08-21T08:20:10;9.23;;;4.78;;
72406;SDS011;60396;47.550;18.828;2022-08-21T08:22:40;9.10;;;4.28;;
72406;SDS011;60396;47.550;18.828;2022-08-21T08:25:09;8.87;;;4.60;;
72406;SDS011;60396;47.550;18.828;2022-08-21T08:27:38;10.60;;;3.37;;
72406;SDS011;60396;47.550;18.828;2022-08-21T08:30:07;10.43;;;4.53;;
72406;SDS011;60396;47.550;18.828;2022-08-21T08:32:36;14.98;;;5.32;;
72406;SDS011;60396;47.550;18.828;2022-08-21T08:35:04;9.95;;;4.37;;
72406;SDS011;60396;47.550;18.828;2022-08-21T08:37:34;9.07;;;4.50;;
72406;SDS011;60396;47.550;18.828;2022-08-21T08:40:12;8.05;;;3.17;;
72406;SDS011;60396;47.550;18.828;2022-08-21T08:42:42;8.60;;;4.15;;
72406;SDS011;60396;47.550;18.828;2022-08-21T08:45:12;11.20;;;4.80;;
72406;SDS011;60396;47.550;18.828;2022-08-21T08:47:44;8.93;;;4.00;;
72406;SDS011;60396;47.550;18.828;2022-08-21T08:50:17;11.10;;;4.50;;
72406;SDS011;60396;47.550;18.828;2022-08-21T08:52:49;8.68;;;4.28;;
72406;SDS011;60396;47.550;18.828;2022-08-21T08:55:32;10.40;;;4.90;;
72406;SDS011;60396;47.550;18.828;2022-08-21T08:58:03;10.05;;;4.37;;
72406;SDS011;60396;47.550;18.828;2022-08-21T09:00:32;10.25;;;4.95;;
72406;SDS011;60396;47.550;18.828;2022-08-21T09:03:00;8.13;;;4.23;;
72406;SDS011;60396;47.550;18.828;2022-08-21T09:05:50;8.93;;;4.47;;
72406;SDS011;60396;47.550;18.828;2022-08-21T09:14:05;8.07;;;4.43;;
72406;SDS011;60396;47.550;18.828;2022-08-21T09:16:42;10.00;;;4.63;;
72406;SDS011;60396;47.550;18.828;2022-08-21T09:22:08;8.27;;;4.47;;
72406;SDS011;60396;47.550;18.828;2022-08-21T09:27:34;7.32;;;3.60;;
72406;SDS011;60396;47.550;18.828;2022-08-21T09:30:04;8.20;;;3.93;;
72406;SDS011;60396;47.550;18.828;2022-08-21T09:32:33;7.70;;;3.78;;
72406;SDS011;60396;47.550;18.828;2022-08-21T09:35:06;8.85;;;4.62;;
72406;SDS011;60396;47.550;18.828;2022-08-21T09:38:01;7.90;;;4.05;;
72406;SDS011;60396;47.550;18.828;2022-08-21T09:43:20;8.30;;;4.70;;
72406;SDS011;60396;47.550;18.828;2022-08-21T09:45:50;11.40;;;4.50;;
72406;SDS011;60396;47.550;18.828;2022-08-21T09:48:37;8.00;;;4.22;;
72406;SDS011;60396;47.550;18.828;2022-08-21T09:51:12;9.80;;;4.30;;
72406;SDS011;60396;47.550;18.828;2022-08-21T09:53:46;7.75;;;3.72;;
72406;SDS011;60396;47.550;18.828;2022-08-21T09:56:18;9.50;;;4.30;;
72406;SDS011;60396;47.550;18.828;2022-08-21T09:59:13;8.05;;;3.97;;
72406;SDS011;60396;47.550;18.828;2022-08-21T10:01:45;9.32;;;3.80;;
72406;SDS011;60396;47.550;18.828;2022-08-21T10:04:15;8.60;;;4.35;;
72406;SDS011;60396;47.550;18.828;2022-08-21T10:06:47;10.30;;;4.37;;
72406;SDS011;60396;47.550;18.828;2022-08-21T10:09:16;9.40;;;4.67;;
72406;SDS011;60396;47.550;18.828;2022-08-21T10:11:49;10.73;;;4.50;;
72406;SDS011;60396;47.550;18.828;2022-08-21T10:14:31;8.65;;;3.92;;
72406;SDS011;60396;47.550;18.828;2022-08-21T10:24:58;7.47;;;3.37;;
72406;SDS011;60396;47.550;18.828;2022-08-21T10:27:37;8.63;;;3.90;;
72406;SDS011;60396;47.550;18.828;2022-08-21T10:30:33;8.23;;;4.12;;
72406;SDS011;60396;47.550;18.828;2022-08-21T10:33:19;7.68;;;3.47;;
72406;SDS011;60396;47.550;18.828;2022-08-21T10:36:13;8.40;;;3.70;;
72406;SDS011;60396;47.550;18.828;2022-08-21T10:44:30;8.45;;;3.67;;
72406;SDS011;60396;47.550;18.828;2022-08-21T10:55:21;8.32;;;3.00;;
72406;SDS011;60396;47.550;18.828;2022-08-21T11:00:20;7.30;;;3.47;;
72406;SDS011;60396;47.550;18.828;2022-08-21T11:02:55;9.70;;;4.60;;
72406;SDS011;60396;47.550;18.828;2022-08-21T11:08:23;8.10;;;3.92;;
72406;SDS011;60396;47.550;18.828;2022-08-21T11:13:56;10.43;;;4.12;;
72406;SDS011;60396;47.550;18.828;2022-08-21T11:16:53;13.57;;;5.37;;
72406;SDS011;60396;47.550;18.828;2022-08-21T11:20:03;15.43;;;5.50;;
72406;SDS011;60396;47.550;18.828;2022-08-21T11:22:33;11.15;;;4.75;;
72406;SDS011;60396;47.550;18.828;2022-08-21T11:27:49;7.68;;;3.90;;
72406;SDS011;60396;47.550;18.828;2022-08-21T11:30:21;7.73;;;3.53;;
72406;SDS011;60396;47.550;18.828;2022-08-21T11:33:05;11.73;;;4.45;;
72406;SDS011;60396;47.550;18.828;2022-08-21T11:38:32;10.73;;;4.80;;
72406;SDS011;60396;47.550;18.828;2022-08-21T11:49:25;13.73;;;4.70;;
72406;SDS011;60396;47.550;18.828;2022-08-21T11:51:56;10.25;;;5.00;;
72406;SDS011;60396;47.550;18.828;2022-08-21T11:54:51;10.38;;;4.40;;
72406;SDS011;60396;47.550;18.828;2022-08-21T12:02:41;11.35;;;4.37;;
72406;SDS011;60396;47.550;18.828;2022-08-21T12:05:26;10.32;;;4.55;;
72406;SDS011;60396;47.550;18.828;2022-08-21T12:10:39;14.00;;;4.97;;
72406;SDS011;60396;47.550;18.828;2022-08-21T12:13:10;8.30;;;3.67;;
72406;SDS011;60396;47.550;18.828;2022-08-21T12:16:12;7.75;;;3.65;;
72406;SDS011;60396;47.550;18.828;2022-08-21T12:18:42;8.73;;;3.50;;
72406;SDS011;60396;47.550;18.828;2022-08-21T12:21:19;7.45;;;3.50;;
72406;SDS011;60396;47.550;18.828;2022-08-21T12:32:00;12.88;;;4.10;;
72406;SDS011;60396;47.550;18.828;2022-08-21T12:34:45;9.20;;;3.60;;
72406;SDS011;60396;47.550;18.828;2022-08-21T12:37:16;8.30;;;3.77;;
72406;SDS011;60396;47.550;18.828;2022-08-21T12:39:51;7.62;;;2.85;;
72406;SDS011;60396;47.550;18.828;2022-08-21T12:42:24;9.77;;;3.12;;
72406;SDS011;60396;47.550;18.828;2022-08-21T12:45:07;6.25;;;2.80;;
72406;SDS011;60396;47.550;18.828;2022-08-21T12:50:42;7.13;;;2.40;;
72406;SDS011;60396;47.550;18.828;2022-08-21T12:56:04;5.68;;;2.40;;
72406;SDS011;60396;47.550;18.828;2022-08-21T12:58:39;4.40;;;1.98;;
72406;SDS011;60396;47.550;18.828;2022-08-21T13:01:13;10.55;;;2.85;;
72406;SDS011;60396;47.550;18.828;2022-08-21T13:03:44;8.03;;;2.10;;
72406;SDS011;60396;47.550;18.828;2022-08-21T13:06:31;5.10;;;1.80;;
72406;SDS011;60396;47.550;18.828;2022-08-21T13:09:06;4.90;;;1.65;;
72406;SDS011;60396;47.550;18.828;2022-08-21T13:11:39;5.60;;;2.12;;
72406;SDS011;60396;47.550;18.828;2022-08-21T13:14:13;8.25;;;2.22;;
72406;SDS011;60396;47.550;18.828;2022-08-21T13:16:45;5.47;;;1.70;;
72406;SDS011;60396;47.550;18.828;2022-08-21T13:19:16;5.37;;;1.95;;
72406;SDS011;60396;47.550;18.828;2022-08-21T13:21:50;6.53;;;1.80;;
72406;SDS011;60396;47.550;18.828;2022-08-21T13:24:21;7.07;;;1.80;;
72406;SDS011;60396;47.550;18.828;2022-08-21T13:27:16;5.78;;;1.50;;
72406;SDS011;60396;47.550;18.828;2022-08-21T13:30:18;5.37;;;1.90;;
72406;SDS011;60396;47.550;18.828;2022-08-21T13:32:48;5.05;;;1.60;;
72406;SDS011;60396;47.550;18.828;2022-08-21T13:35:20;3.60;;;1.20;;
72406;SDS011;60396;47.550;18.828;2022-08-21T13:37:50;3.75;;;1.42;;
72406;SDS011;60396;47.550;18.828;2022-08-21T13:40:20;3.83;;;1.50;;
72406;SDS011;60396;47.550;18.828;2022-08-21T13:42:53;6.87;;;1.60;;
72406;SDS011;60396;47.550;18.828;2022-08-21T13:45:25;4.00;;;1.25;;
72406;SDS011;60396;47.550;18.828;2022-08-21T13:47:59;3.78;;;1.37;;
72406;SDS011;60396;47.550;18.828;2022-08-21T13:50:33;5.35;;;1.33;;
72406;SDS011;60396;47.550;18.828;2022-08-21T13:53:03;6.87;;;1.40;;
72406;SDS011;60396;47.550;18.828;2022-08-21T13:55:35;3.43;;;1.00;;
72406;SDS011;60396;47.550;18.828;2022-08-21T13:58:10;3.60;;;1.42;;
72406;SDS011;60396;47.550;18.828;2022-08-21T14:00:48;3.67;;;1.50;;
72406;SDS011;60396;47.550;18.828;2022-08-21T14:03:29;5.75;;;1.20;;
72406;SDS011;60396;47.550;18.828;2022-08-21T14:05:59;5.45;;;1.10;;
72406;SDS011;60396;47.550;18.828;2022-08-21T14:08:35;4.87;;;1.27;;
72406;SDS011;60396;47.550;18.828;2022-08-21T14:11:05;4.85;;;1.30;;
72406;SDS011;60396;47.550;18.828;2022-08-21T14:13:34;4.07;;;1.40;;
72406;SDS011;60396;47.550;18.828;2022-08-21T14:16:22;3.55;;;1.10;;
72406;SDS011;60396;47.550;18.828;2022-08-21T14:21:32;5.87;;;1.80;;
72406;SDS011;60396;47.550;18.828;2022-08-21T14:26:57;3.90;;;1.30;;
72406;SDS011;60396;47.550;18.828;2022-08-21T14:29:38;5.32;;;1.35;;
72406;SDS011;60396;47.550;18.828;2022-08-21T14:32:15;6.87;;;1.50;;
72406;SDS011;60396;47.550;18.828;2022-08-21T14:34:52;5.17;;;1.50;;
72406;SDS011;60396;47.550;18.828;2022-08-21T14:37:21;6.03;;;1.85;;
72406;SDS011;60396;47.550;18.828;2022-08-21T14:39:50;6.37;;;1.60;;
72406;SDS011;60396;47.550;18.828;2022-08-21T14:42:18;5.25;;;1.70;;
72406;SDS011;60396;47.550;18.828;2022-08-21T14:44:45;4.50;;;1.60;;
72406;SDS011;60396;47.550;18.828;2022-08-21T14:47:13;6.47;;;1.40;;
72406;SDS011;60396;47.550;18.828;2022-08-21T14:49:41;4.53;;;1.55;;
72406;SDS011;60396;47.550;18.828;2022-08-21T14:52:09;4.55;;;1.30;;
72406;SDS011;60396;47.550;18.828;2022-08-21T14:54:37;4.68;;;1.55;;
72406;SDS011;60396;47.550;18.828;2022-08-21T14:57:06;3.92;;;1.05;;
72406;SDS011;60396;47.550;18.828;2022-08-21T14:59:36;3.83;;;0.90;;
72406;SDS011;60396;47.550;18.828;2022-08-21T15:02:05;3.58;;;1.33;;
72406;SDS011;60396;47.550;18.828;2022-08-21T15:04:33;4.70;;;1.37;;
72406;SDS011;60396;47.550;18.828;2022-08-21T15:07:01;4.05;;;1.20;;
72406;SDS011;60396;47.550;18.828;2022-08-21T15:09:28;3.90;;;1.12;;
72406;SDS011;60396;47.550;18.828;2022-08-21T15:11:57;4.50;;;1.10;;
72406;SDS011;60396;47.550;18.828;2022-08-21T15:14:26;5.10;;;1.65;;
72406;SDS011;60396;47.550;18.828;2022-08-21T15:16:55;4.60;;;1.20;;
72406;SDS011;60396;47.550;18.828;2022-08-21T15:19:23;5.25;;;1.17;;
72406;SDS011;60396;47.550;18.828;2022-08-21T15:21:51;4.32;;;1.15;;
72406;SDS011;60396;47.550;18.828;2022-08-21T15:24:19;4.87;;;1.50;;
72406;SDS011;60396;47.550;18.828;2022-08-21T15:26:47;5.72;;;1.48;;
72406;SDS011;60396;47.550;18.828;2022-08-21T15:29:15;4.85;;;1.25;;
72406;SDS011;60396;47.550;18.828;2022-08-21T15:31:59;4.20;;;1.23;;
72406;SDS011;60396;47.550;18.828;2022-08-21T15:34:28;3.65;;;1.40;;
72406;SDS011;60396;47.550;18.828;2022-08-21T15:36:57;5.53;;;1.47;;
72406;SDS011;60396;47.550;18.828;2022-08-21T15:39:25;5.87;;;1.50;;
72406;SDS011;60396;47.550;18.828;2022-08-21T15:41:58;4.85;;;1.45;;
72406;SDS011;60396;47.550;18.828;2022-08-21T15:44:27;4.55;;;1.65;;
72406;SDS011;60396;47.550;18.828;2022-08-21T15:46:56;4.28;;;1.40;;
72406;SDS011;60396;47.550;18.828;2022-08-21T15:49:24;3.97;;;1.23;;
72406;SDS011;60396;47.550;18.828;2022-08-21T15:51:51;6.12;;;1.48;;
72406;SDS011;60396;47.550;18.828;2022-08-21T15:54:19;9.07;;;1.67;;
72406;SDS011;60396;47.550;18.828;2022-08-21T15:56:47;6.82;;;1.30;;
72406;SDS011;60396;47.550;18.828;2022-08-21T15:59:18;5.20;;;1.33;;
72406;SDS011;60396;47.550;18.828;2022-08-21T16:01:52;5.40;;;1.30;;
72406;SDS011;60396;47.550;18.828;2022-08-21T16:04:24;6.40;;;1.55;;
72406;SDS011;60396;47.550;18.828;2022-08-21T16:06:53;4.82;;;1.50;;
72406;SDS011;60396;47.550;18.828;2022-08-21T16:09:30;7.10;;;1.48;;
72406;SDS011;60396;47.550;18.828;2022-08-21T16:11:58;4.82;;;1.60;;
72406;SDS011;60396;47.550;18.828;2022-08-21T16:14:27;5.97;;;1.70;;
72406;SDS011;60396;47.550;18.828;2022-08-21T16:16:56;5.95;;;1.70;;
72406;SDS011;60396;47.550;18.828;2022-08-21T16:19:24;5.80;;;1.10;;
72406;SDS011;60396;47.550;18.828;2022-08-21T16:21:53;5.07;;;1.83;;